Blowing Sand Mountains, Nevada Weather observations

Data are for observation ending at time listed.
 Day   Time    Ave.   Ave.  Ave.  Vector   Max.   Stn.    Total    Solar   Ave.  
  of    of     Air    Rel.  Wind   Wind    Wind   Baro.  Precip.   Rad.    Soil  
Year   Day     Temp.  Hum.  Speed  Dir.    Gust   Pres.                    Temp. 
2015   (PST)    F      %     mph   deg.    mph     mb.     in.     W/m2     F   
------------------------------------------------------------------------------
 187    0:00   68.3    50    4.4   270      6.4    883.5     0.00       0     79.2
 187    0:10   67.7    51    3.6   247      5.3    883.5     0.00       0     79.1
 187    0:20   66.7    54    2.7   230      4.7    883.6     0.00       0     79.0
 187    0:30   65.7    56    2.3    99      3.7    883.5     0.00       0     79.0
 187    0:40   64.7    58    2.5    97      3.7    883.4     0.00       0     78.9
 187    0:50   63.7    61    2.8    82      3.5    883.4     0.00       0     78.8
 187    1:00   62.5    63    3.1    98      3.8    883.5     0.00       0     78.7
 187    1:10   61.3    65    1.8    68      2.9    883.4     0.00       0     78.7
 187    1:20   61.1    64    2.0    87      3.5    883.4     0.00       0     78.6
 187    1:30   62.3    61    2.4   113      4.0    883.5     0.00       0     78.5
 187    1:40   62.4    60    3.3   120      4.5    883.4     0.00       0     78.4
 187    1:50   62.6    60    2.0    76      3.6    883.5     0.00       0     78.3
 187    2:00   62.5    60    1.7    59      3.1    883.5     0.00       0     78.2
 187    2:10   62.9    60    2.3   104      3.4    883.5     0.00       0     78.2
 187    2:20   61.2    63    2.7   181      4.4    883.5     0.00       0     78.1
 187    2:30   58.8    67    2.5   149      3.5    883.7     0.00       0     78.0
 187    2:40   55.8    69    2.5   184      3.4    883.6     0.00       0     78.0
 187    2:50   51.5    72    3.1   176      4.5    883.6     0.00       0     77.9
 187    3:00   45.3    77    3.2   182      4.1    883.6     0.00       0     77.8
 187    3:10   37.4    82    1.8   183      3.2    883.6     0.00       0     77.7
 187    3:20   33.6    86    2.5   271      3.5    883.7     0.00       0     77.6
 187    3:30   33.9    89    2.2   264      2.8    883.8     0.00       0     77.5
 187    3:40   32.8    94    1.6   196      2.6    883.9     0.00       0     77.5
 187    3:50   28.8    99    2.5   180      2.8    883.9     0.00       0     77.4
 187    4:00   23.7   113    3.1   137      3.7    884.0     0.00       0     77.3
 187    4:10   18.2   134    1.8    84      3.0    884.1     0.00       0     77.2
 187    4:20   13.6   158    0.2    56      0.9    884.1     0.00       0     77.1
 187    4:30    9.7   162    0.6   142      1.5    884.2     0.00       1     77.0
 187    4:40    6.0   162    1.2   149      1.5    884.2     0.00       3     76.9
 187    4:50    2.9   163    1.6   167      2.6    884.2     0.00       7     76.9
 187    5:00    0.0   163    1.9   190      2.9    884.3     0.00       9     76.8
 187    5:10   -2.7   163    2.0   150      2.9    884.4     0.00      13     76.7
 187    5:20   -5.3   163    2.4   180      4.2    884.5     0.00      15     76.6
 187    5:30   -7.8   163    1.0   220      4.2    884.6     0.00      24     76.5
 187    5:40   -9.3   163    1.0    11      2.3    884.7     0.00      54     76.4
 187    5:50   -9.4   163    0.6    23      1.0    884.8     0.00      72     76.3
 187    6:00   -9.0   163    1.1    37      2.0    884.9     0.00     156     76.2
 187    6:10   -5.2   163    1.9    60      3.4    884.9     0.00     192     76.0
 187    6:20    1.9   163    2.5    84      3.9    885.0     0.00     224     75.9
 187    6:30   10.6   163    2.4    80      3.4    885.0     0.00     254     75.8
 187    6:40   19.5   163    1.6    74      3.2    885.1     0.00     282     75.7
 187    6:50   27.9   162    0.3    69      1.5    885.0     0.00     316     75.7
 187    7:00   39.2   162    0.3   166      1.5    885.0     0.00     350     75.5
 187    7:10   50.6   150    0.6    14      2.2    885.1     0.00     380     75.4
 187    7:20   57.6   107    1.2    20      2.8    885.1     0.00     409     75.4
 187    7:30   64.3    74    0.6   258      2.1    885.0     0.00     441     75.3
 187    7:40   68.2    53    1.1   292      2.6    885.0     0.00     473     75.2
 187    7:50   70.2    46    1.2   297      2.6    885.0     0.00     503     75.1
 187    8:00   71.5    43    1.4   318      3.5    885.0     0.00     535     75.1
 187    8:10   72.3    41    1.4   309      3.3    885.0     0.00     564     75.0
 187    8:20   73.5    39    1.2   297      3.2    884.9     0.00     592     74.9
 187    8:30   74.0    38    2.5   255      4.5    884.9     0.00     620     74.9
 187    8:40   74.5    36    2.8   272      5.0    884.8     0.00     648     74.8
 187    8:50   75.5    35    2.4   279      4.2    884.6     0.00     673     74.8
 187    9:00   76.7    33    2.9   259      5.3    884.6     0.00     697     74.8
 187    9:10   77.3    32    3.6   281      6.6    884.5     0.00     723     74.7
 187    9:20   77.9    31    3.9   278      8.0    884.4     0.00     747     74.7
 187    9:30   78.7    30    3.2   305      6.7    884.3     0.00     772     74.7
 187    9:40   79.6    29    4.0   267      7.8    884.3     0.00     791     74.7
 187    9:50   80.0    29    2.8   284      5.8    884.3     0.00     811     74.7
 187   10:00   80.6    28    4.4   284      7.3    884.3     0.00     834     74.7
 187   10:10   81.4    27    2.5   263      6.1    884.2     0.00     849     74.8
 187   10:20   81.7    26    3.9   239      7.6    884.1     0.00     867     74.8
 187   10:30   82.8    25    3.7   294      7.0    884.0     0.00     886     74.8
 187   10:40   83.2    24    3.3   308      8.5    884.0     0.00     899     74.9
 187   10:50   83.6    24    4.0   242      8.3    883.9     0.00     905     74.9
 187   11:00   84.9    23    3.2   216      6.8    883.7     0.00     913     75.0
 187   11:10   85.9    22    3.5   239      9.1    883.6     0.00     927     75.1
 187   11:20   85.8    22    4.2   208      8.7    883.5     0.00     930     75.2
 187   11:30   85.9    22    4.2   262      9.6    883.4     0.00     937     75.3
 187   11:40   86.1    22    2.3   336      8.0    883.3     0.00     946     75.4
 187   11:50   86.9    21    2.5    93      6.7    883.2     0.00     954     75.5
 187   12:00   88.2    20    1.8   292      5.5    883.0     0.00     956     75.6
 187   12:10   87.7    20    4.0     2      7.2    882.8     0.00     954     75.8
 187   12:20   88.7    19    3.0   311      7.2    882.7     0.00     956     75.9
 187   12:30   89.0    18    3.5   313      8.3    882.5     0.00     945     76.1
 187   12:40   89.2    18    5.3     2      9.9    882.4     0.00     943     76.2
 187   12:50   89.6    16    3.4    29      7.0    882.2     0.00     945     76.4
 187   13:00   90.1    15    1.9    33      4.3    882.0     0.00     946     76.6
 187   13:10   91.6    14    2.6   250      7.1    881.9     0.00     942     76.9
 187   13:20   91.8    14    3.7   335      6.2    881.8     0.00     924     77.0
 187   13:30   91.7    14    3.7   267     10.4    881.7     0.00     914     77.3
 187   13:40   92.5    14    5.5   283     11.2    881.6     0.00     900     77.5
 187   13:50   90.8    14    4.5   287     10.3    881.5     0.00     889     77.7
 187   14:00   92.8    13    1.7   100      4.5    881.3     0.00     878     77.9
 187   14:10   93.6    13    3.0   235      7.0    881.1     0.00     863     78.1
 187   14:20   92.6    13    6.1   334     12.7    880.9     0.00     869     78.3
 187   14:30   92.2    13    3.3   305      9.5    880.8     0.00     461     78.6
 187   14:40   92.3    13    3.2   240      6.1    880.8     0.00     373     78.8
 187   14:50   92.0    12    5.1   226      8.3    880.7     0.00     419     79.1
 187   15:00   91.8    12    4.9   224      8.8    880.6     0.00     300     79.3
 187   15:10   91.2    12    5.0   233      8.0    880.6     0.00     268     79.6
 187   15:20   90.9    13    5.6   268      8.9    880.5     0.00     255     79.8
 187   15:30   90.6    13    4.5   267      8.6    880.5     0.00     247     80.1
 187   15:40   90.5    13    3.4   258      6.9    880.5     0.00     247     80.3
 187   15:50   90.6    13    5.2   253     10.7    880.4     0.00     240     80.5
 187   16:00   90.6    13    7.2   253     10.9    880.3     0.00     205     80.8
 187   16:10   90.4    13    7.2   249     12.8    880.3     0.00     163     81.0
 187   16:20   88.1    16   19.1   249     26.7    880.4     0.00     131     81.2
 187   16:30   85.5    19   21.6   254     29.7    880.6     0.00     111     81.4
 187   16:40   84.3    19   21.4   265     29.0    880.9     0.00     113     81.7
 187   16:50   83.8    19   24.0   267     34.3    881.1     0.00     119     81.8
 187   17:00   82.6    21   24.8   271     32.5    881.1     0.00     125     82.0
 187   17:10   82.2    21   23.7   269     31.1    881.1     0.00     119     82.2
 187   17:20   82.0    21   24.3   259     31.4    881.0     0.00     114     82.3
 187   17:30   81.6    22   20.9   260     29.1    881.1     0.00     101     82.5
 187   17:40   81.2    22   21.9   261     32.3    881.0     0.00      99     82.6
 187   17:50   80.9    23   22.5   268     31.0    881.0     0.00      97     82.7
 187   18:00   80.5    23   23.6   268     31.1    880.9     0.00      90     82.8
 187   18:10   80.4    23   21.8   269     30.5    881.0     0.00      74     82.8
 187   18:20   80.8    22   20.9   276     30.1    880.9     0.00      59     82.9
 187   18:30   81.2    21   18.6   285     28.8    881.2     0.00      50     83.0
 187   18:40   81.4    19   16.2   295     24.2    881.5     0.00      39     83.0
 187   18:50   81.2    19   11.3   321     20.8    881.8     0.00      28     83.0
 187   19:00   81.0    19    7.4   340     16.1    881.7     0.00      17     83.1
 187   19:10   80.7    20   11.7   332     18.2    881.9     0.00       8     83.1
 187   19:20   80.5    20   12.4   322     18.7    882.1     0.00       3     83.1
 187   19:30   79.7    22   11.8   323     17.4    882.3     0.00       2     83.1
 187   19:40   79.3    23    8.3   344     15.2    882.5     0.00       0     83.1
 187   19:50   78.7    25    8.3    16     13.2    882.7     0.00       0     83.1
 187   20:00   77.5    29    8.3     0     13.4    882.9     0.00       0     83.1
 187   20:10   77.5    29    2.8    50      7.2    883.5     0.00       0     83.1
 187   20:20   76.9    31    4.8   202      7.1    883.9     0.00       0     83.1
 187   20:30   76.9    31    2.7   221      5.8    884.1     0.00       0     83.1
 187   20:40   77.7    27    1.3   197      4.4    884.2     0.00       0     83.0
 187   20:50   73.7    44    7.2   203     10.3    884.4     0.01       0     83.0
 187   21:00   71.5    47    5.2   180      8.8    884.4     0.00       0     83.0
 187   21:10   70.8    54    3.5   189      5.8    884.3     0.00       0     82.9
 187   21:20   69.7    60    1.9    86      5.3    884.2     0.00       0     82.9
 187   21:30   68.5    63    1.1   272      2.1    883.9     0.00       0     82.8
 187   21:40   68.2    64    3.4   133      6.1    883.7     0.00       0     82.8
 187   21:50   66.5    67    2.5    65      4.0    883.6     0.00       0     82.7
 187   22:00   66.7    64    3.7   132      6.1    883.5     0.00       0     82.6
 187   22:10   68.4    58    3.1   123      5.4    883.4     0.00       0     82.6
 187   22:20   68.0    60    4.2   127      9.3    883.4     0.00       0     82.5

Return to Blowing Sand Mountains graphs page.


Western Regional Climate Center,wrcc@dri.edu